sensor_id;sensor_type;location;lat;lon;timestamp;pressure;altitude;pressure_sealevel;temperature;humidity
75640;BME280;64233;51.486;6.332;2022-11-15T00:02:04;100616.03;;;6.94;99.52
75640;BME280;64233;51.486;6.332;2022-11-15T00:04:30;100614.31;;;7.00;99.55
75640;BME280;64233;51.486;6.332;2022-11-15T00:06:55;100605.50;;;6.99;99.37
75640;BME280;64233;51.486;6.332;2022-11-15T00:09:20;100605.72;;;6.98;99.95
75640;BME280;64233;51.486;6.332;2022-11-15T00:11:45;100602.59;;;7.01;99.99
75640;BME280;64233;51.486;6.332;2022-11-15T00:14:11;100606.53;;;7.10;99.04
75640;BME280;64233;51.486;6.332;2022-11-15T00:16:36;100594.00;;;7.11;99.24
75640;BME280;64233;51.486;6.332;2022-11-15T00:19:02;100591.44;;;7.16;99.26
75640;BME280;64233;51.486;6.332;2022-11-15T00:21:27;100590.16;;;7.18;99.17
75640;BME280;64233;51.486;6.332;2022-11-15T00:23:52;100590.75;;;7.20;99.51
75640;BME280;64233;51.486;6.332;2022-11-15T00:26:18;100591.34;;;7.22;99.11
75640;BME280;64233;51.486;6.332;2022-11-15T00:28:43;100590.28;;;7.23;99.62
75640;BME280;64233;51.486;6.332;2022-11-15T00:31:12;100590.06;;;7.25;99.50
75640;BME280;64233;51.486;6.332;2022-11-15T00:33:38;100578.66;;;7.30;99.42
75640;BME280;64233;51.486;6.332;2022-11-15T00:36:06;100586.13;;;7.28;99.52
75640;BME280;64233;51.486;6.332;2022-11-15T00:38:34;100583.44;;;7.28;99.93
75640;BME280;64233;51.486;6.332;2022-11-15T00:41:01;100578.66;;;7.30;99.60
75640;BME280;64233;51.486;6.332;2022-11-15T00:43:27;100577.06;;;7.29;100.00
75640;BME280;64233;51.486;6.332;2022-11-15T00:45:53;100585.06;;;7.29;99.98
75640;BME280;64233;51.486;6.332;2022-11-15T00:48:18;100574.41;;;7.29;99.91
75640;BME280;64233;51.486;6.332;2022-11-15T00:50:43;100574.41;;;7.29;100.00
75640;BME280;64233;51.486;6.332;2022-11-15T00:53:09;100577.28;;;7.27;100.00
75640;BME280;64233;51.486;6.332;2022-11-15T00:55:34;100578.09;;;7.28;100.00
75640;BME280;64233;51.486;6.332;2022-11-15T00:57:59;100575.75;;;7.31;100.00
75640;BME280;64233;51.486;6.332;2022-11-15T01:00:24;100570.78;;;7.35;100.00
75640;BME280;64233;51.486;6.332;2022-11-15T01:02:50;100574.25;;;7.35;100.00
75640;BME280;64233;51.486;6.332;2022-11-15T01:37:40;100556.00;;;7.56;100.00
75640;BME280;64233;51.486;6.332;2022-11-15T01:40:13;100552.84;;;7.59;100.00
75640;BME280;64233;51.486;6.332;2022-11-15T01:42:38;100548.91;;;7.62;100.00
75640;BME280;64233;51.486;6.332;2022-11-15T01:45:03;100549.47;;;7.64;100.00
75640;BME280;64233;51.486;6.332;2022-11-15T01:47:36;100542.03;;;7.66;100.00
75640;BME280;64233;51.486;6.332;2022-11-15T01:50:07;100543.19;;;7.70;100.00
75640;BME280;64233;51.486;6.332;2022-11-15T01:52:34;100538.16;;;7.73;100.00
75640;BME280;64233;51.486;6.332;2022-11-15T01:57:28;100542.34;;;7.81;100.00
75640;BME280;64233;51.486;6.332;2022-11-15T01:59:53;100545.25;;;7.80;100.00
75640;BME280;64233;51.486;6.332;2022-11-15T02:02:20;100536.28;;;7.86;100.00
75640;BME280;64233;51.486;6.332;2022-11-15T02:04:46;100535.56;;;7.90;100.00
75640;BME280;64233;51.486;6.332;2022-11-15T02:07:15;100531.59;;;7.93;100.00
75640;BME280;64233;51.486;6.332;2022-11-15T02:09:42;100541.25;;;7.94;100.00
75640;BME280;64233;51.486;6.332;2022-11-15T02:12:09;100528.94;;;7.93;100.00
75640;BME280;64233;51.486;6.332;2022-11-15T02:14:39;100534.38;;;7.98;100.00
75640;BME280;64233;51.486;6.332;2022-11-15T02:30:47;100519.66;;;8.13;100.00
75640;BME280;64233;51.486;6.332;2022-11-15T02:41:42;100511.56;;;8.24;100.00
75640;BME280;64233;51.486;6.332;2022-11-15T02:44:26;100521.47;;;8.24;100.00
75640;BME280;64233;51.486;6.332;2022-11-15T02:47:06;100521.22;;;8.25;100.00
75640;BME280;64233;51.486;6.332;2022-11-15T02:49:41;100518.94;;;8.34;100.00
75640;BME280;64233;51.486;6.332;2022-11-15T02:52:07;100512.81;;;8.34;100.00
75640;BME280;64233;51.486;6.332;2022-11-15T02:54:33;100513.34;;;8.36;100.00
75640;BME280;64233;51.486;6.332;2022-11-15T02:57:15;100510.78;;;8.41;100.00
75640;BME280;64233;51.486;6.332;2022-11-15T03:00:01;100510.88;;;8.46;100.00
75640;BME280;64233;51.486;6.332;2022-11-15T03:02:55;100507.16;;;8.47;100.00
75640;BME280;64233;51.486;6.332;2022-11-15T03:10:39;100507.00;;;8.54;100.00
75640;BME280;64233;51.486;6.332;2022-11-15T03:13:20;100502.13;;;8.51;100.00
75640;BME280;64233;51.486;6.332;2022-11-15T03:15:57;100500.25;;;8.51;100.00
75640;BME280;64233;51.486;6.332;2022-11-15T03:18:34;100491.91;;;8.48;100.00
75640;BME280;64233;51.486;6.332;2022-11-15T03:21:03;100495.06;;;8.44;100.00
75640;BME280;64233;51.486;6.332;2022-11-15T03:23:30;100490.97;;;8.42;100.00
75640;BME280;64233;51.486;6.332;2022-11-15T03:25:58;100492.59;;;8.43;100.00
75640;BME280;64233;51.486;6.332;2022-11-15T03:28:30;100486.78;;;8.46;100.00
75640;BME280;64233;51.486;6.332;2022-11-15T03:31:00;100488.50;;;8.52;100.00
75640;BME280;64233;51.486;6.332;2022-11-15T03:33:27;100481.78;;;8.50;100.00
75640;BME280;64233;51.486;6.332;2022-11-15T03:35:53;100488.03;;;8.55;100.00
75640;BME280;64233;51.486;6.332;2022-11-15T03:38:25;100491.75;;;8.54;100.00
75640;BME280;64233;51.486;6.332;2022-11-15T03:41:06;100496.28;;;8.54;100.00
75640;BME280;64233;51.486;6.332;2022-11-15T03:43:48;100491.19;;;8.52;100.00
75640;BME280;64233;51.486;6.332;2022-11-15T03:46:25;100493.03;;;8.69;100.00
75640;BME280;64233;51.486;6.332;2022-11-15T03:48:53;100487.63;;;8.64;100.00
75640;BME280;64233;51.486;6.332;2022-11-15T03:51:22;100482.75;;;8.60;100.00
75640;BME280;64233;51.486;6.332;2022-11-15T03:53:47;100487.28;;;8.60;100.00
75640;BME280;64233;51.486;6.332;2022-11-15T03:56:13;100496.34;;;8.59;100.00
75640;BME280;64233;51.486;6.332;2022-11-15T03:58:38;100491.25;;;8.57;100.00
75640;BME280;64233;51.486;6.332;2022-11-15T04:01:03;100497.91;;;8.55;100.00
75640;BME280;64233;51.486;6.332;2022-11-15T04:03:29;100486.22;;;8.61;100.00
75640;BME280;64233;51.486;6.332;2022-11-15T04:05:54;100488.09;;;8.60;100.00
75640;BME280;64233;51.486;6.332;2022-11-15T04:08:19;100494.50;;;8.59;100.00
75640;BME280;64233;51.486;6.332;2022-11-15T04:10:44;100498.47;;;8.57;100.00
75640;BME280;64233;51.486;6.332;2022-11-15T04:13:10;100498.22;;;8.58;100.00
75640;BME280;64233;51.486;6.332;2022-11-15T04:15:36;100500.41;;;8.61;100.00
75640;BME280;64233;51.486;6.332;2022-11-15T04:18:01;100496.34;;;8.59;100.00
75640;BME280;64233;51.486;6.332;2022-11-15T04:20:28;100498.72;;;8.55;100.00
75640;BME280;64233;51.486;6.332;2022-11-15T04:23:32;100484.84;;;8.58;100.00
75640;BME280;64233;51.486;6.332;2022-11-15T04:26:19;100484.84;;;8.58;100.00
75640;BME280;64233;51.486;6.332;2022-11-15T04:28:45;100491.88;;;8.65;100.00
75640;BME280;64233;51.486;6.332;2022-11-15T04:31:29;100486.06;;;8.68;100.00
75640;BME280;64233;51.486;6.332;2022-11-15T04:33:54;100486.38;;;8.71;100.00
75640;BME280;64233;51.486;6.332;2022-11-15T04:36:20;100487.44;;;8.70;100.00
75640;BME280;64233;51.486;6.332;2022-11-15T04:39:05;100483.69;;;8.71;100.00
75640;BME280;64233;51.486;6.332;2022-11-15T04:41:30;100477.84;;;8.74;100.00
75640;BME280;64233;51.486;6.332;2022-11-15T04:43:55;100478.09;;;8.73;100.00
75640;BME280;64233;51.486;6.332;2022-11-15T04:46:22;100478.44;;;8.76;100.00
75640;BME280;64233;51.486;6.332;2022-11-15T04:48:47;100480.28;;;8.76;100.00
75640;BME280;64233;51.486;6.332;2022-11-15T04:51:13;100481.91;;;8.77;100.00
75640;BME280;64233;51.486;6.332;2022-11-15T04:53:38;100481.16;;;8.82;100.00
75640;BME280;64233;51.486;6.332;2022-11-15T04:56:04;100469.91;;;8.79;100.00
75640;BME280;64233;51.486;6.332;2022-11-15T04:58:29;100469.16;;;8.84;100.00
75640;BME280;64233;51.486;6.332;2022-11-15T05:00:54;100473.72;;;8.84;100.00
75640;BME280;64233;51.486;6.332;2022-11-15T05:03:19;100470.63;;;8.92;100.00
75640;BME280;64233;51.486;6.332;2022-11-15T05:06:03;100466.41;;;8.96;100.00
75640;BME280;64233;51.486;6.332;2022-11-15T05:08:29;100463.72;;;8.96;100.00
75640;BME280;64233;51.486;6.332;2022-11-15T05:10:54;100468.50;;;8.94;100.00
75640;BME280;64233;51.486;6.332;2022-11-15T05:13:19;100476.28;;;8.95;100.00
75640;BME280;64233;51.486;6.332;2022-11-15T05:15:44;100468.50;;;8.94;100.00
75640;BME280;64233;51.486;6.332;2022-11-15T05:18:10;100465.81;;;8.94;100.00
75640;BME280;64233;51.486;6.332;2022-11-15T05:20:35;100460.47;;;8.94;100.00
75640;BME280;64233;51.486;6.332;2022-11-15T05:23:00;100472.31;;;8.98;100.00
75640;BME280;64233;51.486;6.332;2022-11-15T05:25:26;100466.16;;;8.98;100.00
75640;BME280;64233;51.486;6.332;2022-11-15T05:27:51;100460.78;;;8.98;100.00
75640;BME280;64233;51.486;6.332;2022-11-15T05:30:17;100459.25;;;9.02;100.00
75640;BME280;64233;51.486;6.332;2022-11-15T05:32:43;100458.16;;;9.03;100.00
75640;BME280;64233;51.486;6.332;2022-11-15T05:35:13;100450.75;;;9.10;100.00
75640;BME280;64233;51.486;6.332;2022-11-15T05:37:42;100451.59;;;9.10;100.00
75640;BME280;64233;51.486;6.332;2022-11-15T05:40:08;100456.38;;;9.08;100.00
75640;BME280;64233;51.486;6.332;2022-11-15T05:42:33;100459.53;;;9.05;100.00
75640;BME280;64233;51.486;6.332;2022-11-15T05:44:59;100452.88;;;9.08;100.00
75640;BME280;64233;51.486;6.332;2022-11-15T05:47:29;100445.59;;;9.03;100.00
75640;BME280;64233;51.486;6.332;2022-11-15T05:49:55;100449.34;;;9.02;100.00
75640;BME280;64233;51.486;6.332;2022-11-15T05:52:25;100453.31;;;9.00;100.00
75640;BME280;64233;51.486;6.332;2022-11-15T05:54:55;100445.59;;;9.03;100.00
75640;BME280;64233;51.486;6.332;2022-11-15T05:57:21;100440.75;;;9.00;100.00
75640;BME280;64233;51.486;6.332;2022-11-15T05:59:47;100449.97;;;9.09;100.00
75640;BME280;64233;51.486;6.332;2022-11-15T06:02:12;100451.84;;;9.09;100.00
75640;BME280;64233;51.486;6.332;2022-11-15T06:04:37;100447.28;;;9.09;100.00
75640;BME280;64233;51.486;6.332;2022-11-15T06:07:03;100448.84;;;9.05;100.00
75640;BME280;64233;51.486;6.332;2022-11-15T06:09:28;100452.38;;;9.11;100.00
75640;BME280;64233;51.486;6.332;2022-11-15T06:11:53;100457.44;;;9.07;100.00
75640;BME280;64233;51.486;6.332;2022-11-15T06:14:19;100457.19;;;9.09;100.00
75640;BME280;64233;51.486;6.332;2022-11-15T06:16:44;100459.28;;;9.07;100.00
75640;BME280;64233;51.486;6.332;2022-11-15T06:19:09;100460.13;;;9.07;100.00
75640;BME280;64233;51.486;6.332;2022-11-15T06:21:35;100463.66;;;9.13;100.00
75640;BME280;64233;51.486;6.332;2022-11-15T06:24:00;100457.50;;;9.12;100.00
75640;BME280;64233;51.486;6.332;2022-11-15T06:26:25;100454.56;;;9.14;100.00
75640;BME280;64233;51.486;6.332;2022-11-15T06:28:51;100451.63;;;9.16;100.00
75640;BME280;64233;51.486;6.332;2022-11-15T06:31:16;100450.91;;;9.20;100.00
75640;BME280;64233;51.486;6.332;2022-11-15T06:33:41;100438.81;;;9.18;100.00
75640;BME280;64233;51.486;6.332;2022-11-15T06:36:11;100453.00;;;9.18;100.00
75640;BME280;64233;51.486;6.332;2022-11-15T06:38:41;100446.28;;;9.16;100.00
75640;BME280;64233;51.486;6.332;2022-11-15T06:41:08;100444.44;;;9.16;100.00
75640;BME280;64233;51.486;6.332;2022-11-15T06:43:34;100449.53;;;9.18;100.00
75640;BME280;64233;51.486;6.332;2022-11-15T06:46:00;100447.66;;;9.18;100.00
75640;BME280;64233;51.486;6.332;2022-11-15T06:48:27;100454.88;;;9.18;100.00
75640;BME280;64233;51.486;6.332;2022-11-15T06:50:56;100461.03;;;9.18;100.00
75640;BME280;64233;51.486;6.332;2022-11-15T06:53:22;100462.91;;;9.18;100.00
75640;BME280;64233;51.486;6.332;2022-11-15T06:55:48;100465.84;;;9.16;100.00
75640;BME280;64233;51.486;6.332;2022-11-15T06:58:14;100470.94;;;9.18;100.00
75640;BME280;64233;51.486;6.332;2022-11-15T07:00:39;100471.88;;;9.28;100.00
75640;BME280;64233;51.486;6.332;2022-11-15T07:03:05;100473.25;;;9.31;100.00
75640;BME280;64233;51.486;6.332;2022-11-15T07:05:30;100479.91;;;9.28;100.00
75640;BME280;64233;51.486;6.332;2022-11-15T07:07:57;100476.75;;;9.32;100.00
75640;BME280;64233;51.486;6.332;2022-11-15T07:10:23;100486.97;;;9.35;100.00
75640;BME280;64233;51.486;6.332;2022-11-15T07:12:50;100494.81;;;9.41;100.00
75640;BME280;64233;51.486;6.332;2022-11-15T07:15:17;100497.66;;;9.57;100.00
75640;BME280;64233;51.486;6.332;2022-11-15T07:17:43;100505.50;;;9.63;100.00
75640;BME280;64233;51.486;6.332;2022-11-15T07:20:08;100521.25;;;9.82;100.00
75640;BME280;64233;51.486;6.332;2022-11-15T07:22:33;100522.19;;;9.71;100.00
75640;BME280;64233;51.486;6.332;2022-11-15T07:24:59;100521.75;;;9.79;100.00
75640;BME280;64233;51.486;6.332;2022-11-15T07:27:24;100521.47;;;9.75;100.00
75640;BME280;64233;51.486;6.332;2022-11-15T07:29:49;100526.00;;;9.75;100.00
75640;BME280;64233;51.486;6.332;2022-11-15T07:32:15;100522.19;;;9.71;100.00
75640;BME280;64233;51.486;6.332;2022-11-15T07:34:40;100531.94;;;9.77;100.00
75640;BME280;64233;51.486;6.332;2022-11-15T07:37:05;100523.31;;;9.75;100.00
75640;BME280;64233;51.486;6.332;2022-11-15T07:39:30;100528.00;;;9.62;100.00
75640;BME280;64233;51.486;6.332;2022-11-15T07:41:56;100535.75;;;9.59;100.00
75640;BME280;64233;51.486;6.332;2022-11-15T07:44:41;100531.44;;;9.58;100.00
75640;BME280;64233;51.486;6.332;2022-11-15T07:47:06;100541.09;;;9.59;100.00
75640;BME280;64233;51.486;6.332;2022-11-15T07:49:32;100543.84;;;9.64;100.00
75640;BME280;64233;51.486;6.332;2022-11-15T07:51:57;100542.03;;;9.70;100.00
75640;BME280;64233;51.486;6.332;2022-11-15T07:54:22;100546.06;;;9.72;100.00
75640;BME280;64233;51.486;6.332;2022-11-15T07:56:48;100553.63;;;9.75;100.00
75640;BME280;64233;51.486;6.332;2022-11-15T07:59:13;100551.50;;;9.77;100.00
75640;BME280;64233;51.486;6.332;2022-11-15T08:01:38;100561.09;;;9.73;100.00
75640;BME280;64233;51.486;6.332;2022-11-15T08:04:03;100554.06;;;9.67;100.00
75640;BME280;64233;51.486;6.332;2022-11-15T08:06:29;100559.19;;;9.69;100.00
75640;BME280;64233;51.486;6.332;2022-11-15T08:08:55;100557.25;;;9.64;100.00
75640;BME280;64233;51.486;6.332;2022-11-15T08:11:20;100549.69;;;9.61;100.00
75640;BME280;64233;51.486;6.332;2022-11-15T08:13:45;100555.81;;;9.56;100.00
75640;BME280;64233;51.486;6.332;2022-11-15T08:16:10;100555.97;;;9.50;100.00
75640;BME280;64233;51.486;6.332;2022-11-15T08:18:37;100554.13;;;9.50;100.00
75640;BME280;64233;51.486;6.332;2022-11-15T08:21:02;100559.13;;;9.41;100.00
75640;BME280;64233;51.486;6.332;2022-11-15T08:23:28;100553.25;;;9.44;100.00
75640;BME280;64233;51.486;6.332;2022-11-15T08:25:59;100559.16;;;9.46;100.00
75640;BME280;64233;51.486;6.332;2022-11-15T08:28:24;100555.69;;;9.46;100.00
75640;BME280;64233;51.486;6.332;2022-11-15T08:30:49;100548.94;;;9.43;100.00
75640;BME280;64233;51.486;6.332;2022-11-15T08:33:15;100547.28;;;9.37;100.00
75640;BME280;64233;51.486;6.332;2022-11-15T08:35:41;100546.44;;;9.37;100.00
75640;BME280;64233;51.486;6.332;2022-11-15T08:38:07;100539.78;;;9.39;100.00
75640;BME280;64233;51.486;6.332;2022-11-15T08:40:32;100534.50;;;9.44;100.00
75640;BME280;64233;51.486;6.332;2022-11-15T08:42:58;100540.41;;;9.46;100.00
75640;BME280;64233;51.486;6.332;2022-11-15T08:45:24;100549.81;;;9.49;100.00
75640;BME280;64233;51.486;6.332;2022-11-15T08:47:49;100538.34;;;9.54;100.00
75640;BME280;64233;51.486;6.332;2022-11-15T08:50:15;100530.31;;;9.54;100.00
75640;BME280;64233;51.486;6.332;2022-11-15T08:52:40;100528.19;;;9.56;100.00
75640;BME280;64233;51.486;6.332;2022-11-15T08:55:06;100526.66;;;9.60;100.00
75640;BME280;64233;51.486;6.332;2022-11-15T08:57:31;100518.09;;;9.63;100.00
75640;BME280;64233;51.486;6.332;2022-11-15T08:59:57;100519.78;;;9.69;100.00
75640;BME280;64233;51.486;6.332;2022-11-15T09:02:22;100519.06;;;9.79;100.00
75640;BME280;64233;51.486;6.332;2022-11-15T09:04:48;100530.13;;;9.82;100.00
75640;BME280;64233;51.486;6.332;2022-11-15T09:07:13;100529.28;;;9.82;100.00
75640;BME280;64233;51.486;6.332;2022-11-15T09:09:39;100527.19;;;9.84;100.00
75640;BME280;64233;51.486;6.332;2022-11-15T09:12:06;100527.72;;;9.86;100.00
75640;BME280;64233;51.486;6.332;2022-11-15T09:14:32;100520.81;;;9.90;100.00
75640;BME280;64233;51.486;6.332;2022-11-15T09:16:57;100526.97;;;9.91;100.00
75640;BME280;64233;51.486;6.332;2022-11-15T09:19:23;100525.13;;;9.91;100.00
75640;BME280;64233;51.486;6.332;2022-11-15T09:21:49;100521.41;;;9.97;99.98
75640;BME280;64233;51.486;6.332;2022-11-15T09:24:14;100523.97;;;10.09;98.64
75640;BME280;64233;51.486;6.332;2022-11-15T09:26:40;100521.50;;;10.08;98.89
75640;BME280;64233;51.486;6.332;2022-11-15T09:29:06;100512.13;;;10.05;99.23
75640;BME280;64233;51.486;6.332;2022-11-15T09:31:31;100512.13;;;10.05;99.56
75640;BME280;64233;51.486;6.332;2022-11-15T09:33:57;100509.97;;;10.07;99.26
75640;BME280;64233;51.486;6.332;2022-11-15T09:36:22;100508.91;;;10.08;99.21
75640;BME280;64233;51.486;6.332;2022-11-15T09:38:48;100498.47;;;10.12;99.49
75640;BME280;64233;51.486;6.332;2022-11-15T09:46:44;100491.59;;;10.21;98.26
75640;BME280;64233;51.486;6.332;2022-11-15T09:49:16;100483.59;;;10.26;98.16
75640;BME280;64233;51.486;6.332;2022-11-15T09:51:49;100478.25;;;10.31;97.97
75640;BME280;64233;51.486;6.332;2022-11-15T09:54:33;100482.41;;;10.44;95.36
75640;BME280;64233;51.486;6.332;2022-11-15T10:05:18;100467.78;;;10.62;89.86
75640;BME280;64233;51.486;6.332;2022-11-15T10:08:06;100461.53;;;10.51;89.59
75640;BME280;64233;51.486;6.332;2022-11-15T10:13:01;100461.28;;;10.53;88.70
75640;BME280;64233;51.486;6.332;2022-11-15T10:15:27;100456.09;;;10.79;89.64
75640;BME280;64233;51.486;6.332;2022-11-15T10:18:00;100445.44;;;10.99;88.30
75640;BME280;64233;51.486;6.332;2022-11-15T10:20:30;100449.72;;;10.95;84.92
75640;BME280;64233;51.486;6.332;2022-11-15T10:23:01;100449.41;;;10.87;86.35
75640;BME280;64233;51.486;6.332;2022-11-15T10:25:30;100451.56;;;10.90;85.08
75640;BME280;64233;51.486;6.332;2022-11-15T10:30:49;100438.19;;;10.95;85.77
75640;BME280;64233;51.486;6.332;2022-11-15T10:41:14;100427.44;;;11.00;83.57
75640;BME280;64233;51.486;6.332;2022-11-15T10:43:40;100417.53;;;11.00;82.40
75640;BME280;64233;51.486;6.332;2022-11-15T10:46:23;100426.41;;;11.06;84.48
75640;BME280;64233;51.486;6.332;2022-11-15T10:49:12;100418.63;;;11.10;85.04
75640;BME280;64233;51.486;6.332;2022-11-15T10:52:17;100411.31;;;10.95;85.07
75640;BME280;64233;51.486;6.332;2022-11-15T10:54:48;100412.19;;;11.11;86.24
75640;BME280;64233;51.486;6.332;2022-11-15T10:57:20;100410.88;;;11.18;85.03
75640;BME280;64233;51.486;6.332;2022-11-15T11:00:00;100399.81;;;11.10;85.47
75640;BME280;64233;51.486;6.332;2022-11-15T11:05:00;100403.94;;;11.33;83.84
75640;BME280;64233;51.486;6.332;2022-11-15T11:07:29;100400.13;;;11.18;85.02
75640;BME280;64233;51.486;6.332;2022-11-15T11:10:00;100402.59;;;11.30;85.04
75640;BME280;64233;51.486;6.332;2022-11-15T11:12:31;100386.44;;;11.25;84.26
75640;BME280;64233;51.486;6.332;2022-11-15T11:15:01;100395.59;;;11.34;82.78
75640;BME280;64233;51.486;6.332;2022-11-15T11:20:31;100393.16;;;11.28;84.08
75640;BME280;64233;51.486;6.332;2022-11-15T11:34:48;100385.69;;;11.40;83.06
75640;BME280;64233;51.486;6.332;2022-11-15T11:42:30;100370.91;;;11.48;82.15
75640;BME280;64233;51.486;6.332;2022-11-15T11:45:31;100374.16;;;11.60;78.45
75640;BME280;64233;51.486;6.332;2022-11-15T11:48:03;100377.09;;;11.53;77.29
75640;BME280;64233;51.486;6.332;2022-11-15T11:50:37;100368.50;;;11.51;77.75
75640;BME280;64233;51.486;6.332;2022-11-15T11:53:12;100368.22;;;11.48;77.16
75640;BME280;64233;51.486;6.332;2022-11-15T11:58:43;100344.06;;;11.58;75.47
75640;BME280;64233;51.486;6.332;2022-11-15T12:01:30;100332.47;;;11.58;75.68
75640;BME280;64233;51.486;6.332;2022-11-15T12:06:46;100326.81;;;11.39;78.66
75640;BME280;64233;51.486;6.332;2022-11-15T12:09:20;100314.44;;;11.32;77.65
75640;BME280;64233;51.486;6.332;2022-11-15T12:11:49;100309.34;;;11.26;78.28
75640;BME280;64233;51.486;6.332;2022-11-15T12:14:38;100297.00;;;11.30;79.71
75640;BME280;64233;51.486;6.332;2022-11-15T12:17:09;100299.41;;;11.42;78.50
75640;BME280;64233;51.486;6.332;2022-11-15T12:19:42;100302.09;;;11.42;78.84
75640;BME280;64233;51.486;6.332;2022-11-15T12:25:08;100305.06;;;11.56;80.30
75640;BME280;64233;51.486;6.332;2022-11-15T12:27:44;100289.19;;;11.59;77.29
75640;BME280;64233;51.486;6.332;2022-11-15T12:30:14;100284.66;;;11.60;77.97
75640;BME280;64233;51.486;6.332;2022-11-15T12:32:50;100276.28;;;11.66;80.17
75640;BME280;64233;51.486;6.332;2022-11-15T12:35:38;100288.66;;;11.67;79.80
75640;BME280;64233;51.486;6.332;2022-11-15T12:38:09;100273.88;;;11.65;79.45
75640;BME280;64233;51.486;6.332;2022-11-15T12:40:37;100271.72;;;11.62;78.17
75640;BME280;64233;51.486;6.332;2022-11-15T12:45:42;100252.13;;;11.61;77.22
75640;BME280;64233;51.486;6.332;2022-11-15T12:58:45;100228.97;;;11.76;74.74
75640;BME280;64233;51.486;6.332;2022-11-15T13:06:55;100218.50;;;11.74;76.14
75640;BME280;64233;51.486;6.332;2022-11-15T13:20:17;100203.22;;;11.39;77.05
75640;BME280;64233;51.486;6.332;2022-11-15T13:28:17;100188.97;;;11.48;75.41
75640;BME280;64233;51.486;6.332;2022-11-15T13:33:16;100179.56;;;11.46;77.62
75640;BME280;64233;51.486;6.332;2022-11-15T13:35:46;100176.59;;;11.52;77.13
75640;BME280;64233;51.486;6.332;2022-11-15T13:40:50;100161.50;;;11.57;77.93
75640;BME280;64233;51.486;6.332;2022-11-15T13:48:34;100151.59;;;11.57;75.83
75640;BME280;64233;51.486;6.332;2022-11-15T13:51:06;100143.75;;;11.61;75.09
75640;BME280;64233;51.486;6.332;2022-11-15T13:53:36;100141.13;;;11.50;76.27
75640;BME280;64233;51.486;6.332;2022-11-15T13:56:02;100142.44;;;11.48;76.61
75640;BME280;64233;51.486;6.332;2022-11-15T13:58:29;100136.56;;;11.46;77.03
75640;BME280;64233;51.486;6.332;2022-11-15T14:01:03;100134.16;;;11.39;78.27
75640;BME280;64233;51.486;6.332;2022-11-15T14:03:39;100133.63;;;11.37;78.19
75640;BME280;64233;51.486;6.332;2022-11-15T14:06:15;100135.50;;;11.31;79.55
75640;BME280;64233;51.486;6.332;2022-11-15T14:11:32;100128.53;;;11.20;81.07
75640;BME280;64233;51.486;6.332;2022-11-15T14:16:37;100121.56;;;11.19;81.49
75640;BME280;64233;51.486;6.332;2022-11-15T14:19:05;100108.66;;;11.21;81.08
75640;BME280;64233;51.486;6.332;2022-11-15T14:21:30;100110.81;;;11.24;80.95
75640;BME280;64233;51.486;6.332;2022-11-15T14:24:19;100101.09;;;11.39;80.46
75640;BME280;64233;51.486;6.332;2022-11-15T14:26:45;100102.97;;;11.38;80.82
75640;BME280;64233;51.486;6.332;2022-11-15T14:29:29;100087.38;;;11.45;80.45
75640;BME280;64233;51.486;6.332;2022-11-15T14:32:21;100095.69;;;11.44;80.78
75640;BME280;64233;51.486;6.332;2022-11-15T14:34:48;100092.22;;;11.38;81.25
75640;BME280;64233;51.486;6.332;2022-11-15T14:37:23;100090.63;;;11.32;82.01
75640;BME280;64233;51.486;6.332;2022-11-15T14:39:50;100089.28;;;11.29;82.59
75640;BME280;64233;51.486;6.332;2022-11-15T14:42:16;100076.66;;;11.40;82.10
75640;BME280;64233;51.486;6.332;2022-11-15T14:44:41;100071.00;;;11.36;82.63
75640;BME280;64233;51.486;6.332;2022-11-15T14:47:06;100069.94;;;11.32;82.83
75640;BME280;64233;51.486;6.332;2022-11-15T14:49:32;100067.25;;;11.37;82.72
75640;BME280;64233;51.486;6.332;2022-11-15T14:51:57;100064.88;;;11.26;84.13
75640;BME280;64233;51.486;6.332;2022-11-15T14:54:22;100062.69;;;11.23;83.90
75640;BME280;64233;51.486;6.332;2022-11-15T14:56:48;100055.97;;;11.35;82.68
75640;BME280;64233;51.486;6.332;2022-11-15T14:59:13;100058.34;;;11.42;82.90
75640;BME280;64233;51.486;6.332;2022-11-15T15:01:38;100045.75;;;11.37;83.43
75640;BME280;64233;51.486;6.332;2022-11-15T15:04:04;100047.91;;;11.35;82.94
75640;BME280;64233;51.486;6.332;2022-11-15T15:06:29;100044.13;;;11.47;82.31
75640;BME280;64233;51.486;6.332;2022-11-15T15:08:55;100040.38;;;11.43;82.70
75640;BME280;64233;51.486;6.332;2022-11-15T15:11:26;100039.88;;;11.30;83.54
75640;BME280;64233;51.486;6.332;2022-11-15T15:13:53;100029.13;;;11.30;82.69
75640;BME280;64233;51.486;6.332;2022-11-15T15:16:21;100028.31;;;11.25;83.26
75640;BME280;64233;51.486;6.332;2022-11-15T15:18:46;100024.28;;;11.27;83.17
75640;BME280;64233;51.486;6.332;2022-11-15T15:21:29;100020.22;;;11.40;81.86
75640;BME280;64233;51.486;6.332;2022-11-15T15:23:56;100011.31;;;11.50;81.89
75640;BME280;64233;51.486;6.332;2022-11-15T15:26:23;100003.56;;;11.38;83.16
75640;BME280;64233;51.486;6.332;2022-11-15T15:28:48;100009.75;;;11.28;84.04
75640;BME280;64233;51.486;6.332;2022-11-15T15:31:14;100010.03;;;11.27;83.79
75640;BME280;64233;51.486;6.332;2022-11-15T15:33:39;99997.16;;;11.29;83.87
75640;BME280;64233;51.486;6.332;2022-11-15T15:36:10;99996.31;;;11.39;83.37
75640;BME280;64233;51.486;6.332;2022-11-15T15:38:35;99991.22;;;11.27;84.55
75640;BME280;64233;51.486;6.332;2022-11-15T15:41:00;99986.41;;;11.24;84.05
75640;BME280;64233;51.486;6.332;2022-11-15T15:43:27;99991.22;;;11.27;84.42
75640;BME280;64233;51.486;6.332;2022-11-15T15:45:53;99989.09;;;11.24;84.95
75640;BME280;64233;51.486;6.332;2022-11-15T15:48:18;99984.28;;;11.26;84.59
75640;BME280;64233;51.486;6.332;2022-11-15T15:50:43;99985.84;;;11.27;84.34